sensor_id;sensor_type;location;lat;lon;timestamp;pressure;altitude;pressure_sealevel;temperature;humidity
44044;BME280;29709;52.396;16.796;2023-08-01T00:00:10;100526.07;;;21.52;67.05
44044;BME280;29709;52.396;16.796;2023-08-01T00:03:23;100528.87;;;21.52;67.58
44044;BME280;29709;52.396;16.796;2023-08-01T00:06:36;100513.27;;;21.56;67.52
44044;BME280;29709;52.396;16.796;2023-08-01T00:09:49;100508.06;;;21.59;67.58
44044;BME280;29709;52.396;16.796;2023-08-01T00:13:03;100500.77;;;21.58;67.72
44044;BME280;29709;52.396;16.796;2023-08-01T00:16:16;100493.57;;;21.63;67.19
44044;BME280;29709;52.396;16.796;2023-08-01T00:19:29;100492.97;;;21.60;67.22
44044;BME280;29709;52.396;16.796;2023-08-01T00:22:42;100478.39;;;21.58;66.80
44044;BME280;29709;52.396;16.796;2023-08-01T00:25:56;100479.50;;;21.57;66.26
44044;BME280;29709;52.396;16.796;2023-08-01T00:29:10;100468.79;;;21.54;66.86
44044;BME280;29709;52.396;16.796;2023-08-01T00:32:23;100464.63;;;21.57;66.87
44044;BME280;29709;52.396;16.796;2023-08-01T00:35:36;100465.27;;;21.59;66.59
44044;BME280;29709;52.396;16.796;2023-08-01T00:38:49;100456.88;;;21.59;66.74
44044;BME280;29709;52.396;16.796;2023-08-01T00:42:02;100449.34;;;21.59;67.27
44044;BME280;29709;52.396;16.796;2023-08-01T00:45:16;100440.70;;;21.61;66.47
44044;BME280;29709;52.396;16.796;2023-08-01T00:48:30;100431.20;;;21.62;66.48
44044;BME280;29709;52.396;16.796;2023-08-01T00:51:43;100426.19;;;21.64;66.01
44044;BME280;29709;52.396;16.796;2023-08-01T00:54:57;100423.06;;;21.60;66.15
44044;BME280;29709;52.396;16.796;2023-08-01T00:58:10;100417.22;;;21.62;65.95
44044;BME280;29709;52.396;16.796;2023-08-01T01:01:23;100418.06;;;21.63;65.77
44044;BME280;29709;52.396;16.796;2023-08-01T01:04:36;100410.26;;;21.65;65.86
44044;BME280;29709;52.396;16.796;2023-08-01T01:07:50;100407.13;;;21.61;66.12
44044;BME280;29709;52.396;16.796;2023-08-01T01:11:04;100405.57;;;21.53;65.57
44044;BME280;29709;52.396;16.796;2023-08-01T01:14:17;100399.53;;;21.45;66.22
44044;BME280;29709;52.396;16.796;2023-08-01T01:17:31;100393.34;;;21.43;66.20
44044;BME280;29709;52.396;16.796;2023-08-01T01:20:44;100386.40;;;21.45;65.87
44044;BME280;29709;52.396;16.796;2023-08-01T01:23:57;100375.73;;;21.42;65.67
44044;BME280;29709;52.396;16.796;2023-08-01T01:27:12;100379.87;;;21.40;65.75
44044;BME280;29709;52.396;16.796;2023-08-01T01:30:27;100371.49;;;21.40;66.20
44044;BME280;29709;52.396;16.796;2023-08-01T01:33:41;100365.30;;;21.38;66.34
44044;BME280;29709;52.396;16.796;2023-08-01T01:36:55;100361.04;;;21.35;66.31
44044;BME280;29709;52.396;16.796;2023-08-01T01:40:08;100347.69;;;21.37;66.38
44044;BME280;29709;52.396;16.796;2023-08-01T01:43:21;100341.33;;;21.42;66.21
44044;BME280;29709;52.396;16.796;2023-08-01T01:46:34;100340.23;;;21.43;65.75
44044;BME280;29709;52.396;16.796;2023-08-01T01:49:48;100326.51;;;21.41;66.03
44044;BME280;29709;52.396;16.796;2023-08-01T01:53:01;100317.27;;;21.41;66.24
44044;BME280;29709;52.396;16.796;2023-08-01T01:56:14;100316.17;;;21.42;66.41
44044;BME280;29709;52.396;16.796;2023-08-01T01:59:27;100311.68;;;21.41;65.80
44044;BME280;29709;52.396;16.796;2023-08-01T02:02:40;100311.16;;;21.44;66.04
44044;BME280;29709;52.396;16.796;2023-08-01T02:05:54;100307.78;;;21.42;65.94
44044;BME280;29709;52.396;16.796;2023-08-01T02:09:08;100306.09;;;21.41;66.27
44044;BME280;29709;52.396;16.796;2023-08-01T02:12:22;100305.13;;;21.35;67.05
44044;BME280;29709;52.396;16.796;2023-08-01T02:15:35;100309.02;;;21.34;66.86
44044;BME280;29709;52.396;16.796;2023-08-01T02:18:48;100295.56;;;21.31;66.31
44044;BME280;29709;52.396;16.796;2023-08-01T02:22:01;100289.24;;;21.24;67.21
44044;BME280;29709;52.396;16.796;2023-08-01T02:25:14;100295.48;;;21.14;68.38
44044;BME280;29709;52.396;16.796;2023-08-01T02:28:28;100289.81;;;21.09;68.00
44044;BME280;29709;52.396;16.796;2023-08-01T02:31:41;100287.74;;;21.04;67.83
44044;BME280;29709;52.396;16.796;2023-08-01T02:34:54;100281.23;;;20.99;68.63
44044;BME280;29709;52.396;16.796;2023-08-01T02:38:07;100280.27;;;20.93;69.41
44044;BME280;29709;52.396;16.796;2023-08-01T02:41:21;100277.89;;;20.85;69.11
44044;BME280;29709;52.396;16.796;2023-08-01T02:44:34;100278.88;;;20.79;69.93
44044;BME280;29709;52.396;16.796;2023-08-01T02:47:47;100277.43;;;20.77;70.06
44044;BME280;29709;52.396;16.796;2023-08-01T02:51:01;100272.57;;;20.72;69.63
44044;BME280;29709;52.396;16.796;2023-08-01T02:54:14;100276.38;;;20.66;69.91
44044;BME280;29709;52.396;16.796;2023-08-01T02:57:27;100264.61;;;20.64;70.21
44044;BME280;29709;52.396;16.796;2023-08-01T03:00:40;100266.53;;;20.63;70.04
44044;BME280;29709;52.396;16.796;2023-08-01T03:03:54;100256.12;;;20.59;70.42
44044;BME280;29709;52.396;16.796;2023-08-01T03:07:07;100257.21;;;20.58;70.43
44044;BME280;29709;52.396;16.796;2023-08-01T03:10:20;100254.42;;;20.58;70.79
44044;BME280;29709;52.396;16.796;2023-08-01T03:13:33;100260.59;;;20.60;70.26
44044;BME280;29709;52.396;16.796;2023-08-01T03:16:46;100256.96;;;20.59;71.26
44044;BME280;29709;52.396;16.796;2023-08-01T03:20:00;100249.09;;;20.56;71.61
44044;BME280;29709;52.396;16.796;2023-08-01T03:23:13;100240.12;;;20.54;72.11
44044;BME280;29709;52.396;16.796;2023-08-01T03:26:26;100249.12;;;20.44;72.24
44044;BME280;29709;52.396;16.796;2023-08-01T03:29:42;100247.77;;;20.35;72.82
44044;BME280;29709;52.396;16.796;2023-08-01T03:32:55;100246.45;;;20.26;73.14
44044;BME280;29709;52.396;16.796;2023-08-01T03:36:08;100240.65;;;20.16;73.54
44044;BME280;29709;52.396;16.796;2023-08-01T03:39:21;100232.40;;;20.09;74.49
44044;BME280;29709;52.396;16.796;2023-08-01T03:42:35;100230.95;;;20.07;75.11
44044;BME280;29709;52.396;16.796;2023-08-01T03:45:48;100237.49;;;20.01;75.80
44044;BME280;29709;52.396;16.796;2023-08-01T03:49:01;100236.79;;;19.94;76.28
44044;BME280;29709;52.396;16.796;2023-08-01T03:52:14;100241.03;;;19.84;77.08
44044;BME280;29709;52.396;16.796;2023-08-01T03:55:27;100247.96;;;19.70;78.28
44044;BME280;29709;52.396;16.796;2023-08-01T03:58:41;100237.72;;;19.52;79.64
44044;BME280;29709;52.396;16.796;2023-08-01T04:01:54;100244.37;;;19.40;80.43
44044;BME280;29709;52.396;16.796;2023-08-01T04:05:08;100237.69;;;19.29;81.70
44044;BME280;29709;52.396;16.796;2023-08-01T04:08:21;100232.94;;;19.18;82.36
44044;BME280;29709;52.396;16.796;2023-08-01T04:11:34;100226.38;;;19.12;84.16
44044;BME280;29709;52.396;16.796;2023-08-01T04:14:48;100229.89;;;19.08;84.00
44044;BME280;29709;52.396;16.796;2023-08-01T04:18:01;100223.68;;;19.06;84.49
44044;BME280;29709;52.396;16.796;2023-08-01T04:21:15;100214.88;;;19.09;84.37
44044;BME280;29709;52.396;16.796;2023-08-01T04:24:28;100221.53;;;19.08;85.00
44044;BME280;29709;52.396;16.796;2023-08-01T04:27:43;100224.77;;;19.04;85.12
44044;BME280;29709;52.396;16.796;2023-08-01T04:30:56;100224.77;;;19.04;85.41
44044;BME280;29709;52.396;16.796;2023-08-01T04:34:10;100203.34;;;19.05;85.53
44044;BME280;29709;52.396;16.796;2023-08-01T04:37:23;100197.41;;;19.01;86.36
44044;BME280;29709;52.396;16.796;2023-08-01T04:40:36;100202.25;;;19.06;86.45
44044;BME280;29709;52.396;16.796;2023-08-01T04:43:49;100195.24;;;19.15;86.47
44044;BME280;29709;52.396;16.796;2023-08-01T04:47:03;100190.28;;;19.17;86.33
44044;BME280;29709;52.396;16.796;2023-08-01T04:50:16;100186.65;;;19.17;87.63
44044;BME280;29709;52.396;16.796;2023-08-01T04:53:29;100179.77;;;19.19;86.79
44044;BME280;29709;52.396;16.796;2023-08-01T04:56:42;100165.21;;;19.17;88.42
44044;BME280;29709;52.396;16.796;2023-08-01T04:59:55;100168.74;;;19.24;87.57
44044;BME280;29709;52.396;16.796;2023-08-01T05:03:09;100158.94;;;19.33;88.25
44044;BME280;29709;52.396;16.796;2023-08-01T05:06:22;100153.02;;;19.42;89.21
44044;BME280;29709;52.396;16.796;2023-08-01T05:09:35;100159.08;;;19.50;86.37
44044;BME280;29709;52.396;16.796;2023-08-01T05:12:49;100148.29;;;19.42;87.31
44044;BME280;29709;52.396;16.796;2023-08-01T05:16:02;100143.42;;;19.38;88.64
44044;BME280;29709;52.396;16.796;2023-08-01T05:19:16;100151.32;;;19.41;88.59
44044;BME280;29709;52.396;16.796;2023-08-01T05:22:29;100145.15;;;19.39;89.35
44044;BME280;29709;52.396;16.796;2023-08-01T05:25:42;100144.52;;;19.37;88.55
44044;BME280;29709;52.396;16.796;2023-08-01T05:28:55;100144.90;;;19.40;88.47
44044;BME280;29709;52.396;16.796;2023-08-01T05:32:08;100139.79;;;19.37;88.50
44044;BME280;29709;52.396;16.796;2023-08-01T05:35:21;100130.48;;;19.31;89.64
44044;BME280;29709;52.396;16.796;2023-08-01T05:38:35;100130.23;;;19.33;89.13
44044;BME280;29709;52.396;16.796;2023-08-01T05:41:48;100121.27;;;19.31;89.45
44044;BME280;29709;52.396;16.796;2023-08-01T05:45:03;100125.52;;;19.33;89.91
44044;BME280;29709;52.396;16.796;2023-08-01T05:48:17;100125.40;;;19.40;89.97
44044;BME280;29709;52.396;16.796;2023-08-01T05:51:30;100120.53;;;19.36;89.81
44044;BME280;29709;52.396;16.796;2023-08-01T05:54:43;100125.85;;;19.37;89.72
44044;BME280;29709;52.396;16.796;2023-08-01T05:57:56;100125.52;;;19.33;90.44
44044;BME280;29709;52.396;16.796;2023-08-01T06:01:11;100122.48;;;19.35;90.31
44044;BME280;29709;52.396;16.796;2023-08-01T06:04:24;100119.44;;;19.37;90.08
44044;BME280;29709;52.396;16.796;2023-08-01T06:07:38;100114.86;;;19.30;90.76
44044;BME280;29709;52.396;16.796;2023-08-01T06:10:51;100108.30;;;19.25;90.76
44044;BME280;29709;52.396;16.796;2023-08-01T06:14:04;100107.20;;;19.26;91.80
44044;BME280;29709;52.396;16.796;2023-08-01T06:17:17;100101.63;;;19.38;91.54
44044;BME280;29709;52.396;16.796;2023-08-01T06:20:30;100104.54;;;19.43;90.86
44044;BME280;29709;52.396;16.796;2023-08-01T06:23:43;100096.52;;;19.46;90.39
44044;BME280;29709;52.396;16.796;2023-08-01T06:26:57;100089.28;;;19.33;91.70
44044;BME280;29709;52.396;16.796;2023-08-01T06:33:39;100088.53;;;19.38;90.97
44044;BME280;29709;52.396;16.796;2023-08-01T06:36:53;100101.02;;;19.36;91.39
44044;BME280;29709;52.396;16.796;2023-08-01T06:40:08;100087.48;;;19.39;90.94
44044;BME280;29709;52.396;16.796;2023-08-01T06:43:21;100079.22;;;19.44;91.27
44044;BME280;29709;52.396;16.796;2023-08-01T06:46:37;100078.84;;;19.52;90.67
44044;BME280;29709;52.396;16.796;2023-08-01T06:49:50;100071.24;;;19.59;90.94
44044;BME280;29709;52.396;16.796;2023-08-01T06:53:03;100064.80;;;19.71;90.27
44044;BME280;29709;52.396;16.796;2023-08-01T06:56:16;100068.40;;;19.83;90.90
44044;BME280;29709;52.396;16.796;2023-08-01T06:59:30;100065.91;;;19.98;89.94
44044;BME280;29709;52.396;16.796;2023-08-01T07:02:44;100063.07;;;20.10;89.61
44044;BME280;29709;52.396;16.796;2023-08-01T07:05:57;100062.36;;;20.31;89.29
44044;BME280;29709;52.396;16.796;2023-08-01T07:09:14;100064.57;;;20.58;89.05
44044;BME280;29709;52.396;16.796;2023-08-01T07:12:28;100060.34;;;20.72;87.22
44044;BME280;29709;52.396;16.796;2023-08-01T07:15:41;100056.55;;;20.78;86.99
44044;BME280;29709;52.396;16.796;2023-08-01T07:18:55;100052.33;;;20.75;86.33
44044;BME280;29709;52.396;16.796;2023-08-01T07:22:08;100049.79;;;20.74;86.24
44044;BME280;29709;52.396;16.796;2023-08-01T07:25:22;100046.74;;;20.75;84.72
44044;BME280;29709;52.396;16.796;2023-08-01T07:28:35;100041.42;;;20.74;85.88
44044;BME280;29709;52.396;16.796;2023-08-01T07:31:48;100035.66;;;20.64;85.24
44044;BME280;29709;52.396;16.796;2023-08-01T07:35:02;100035.21;;;20.72;85.21
44044;BME280;29709;52.396;16.796;2023-08-01T07:38:15;100028.30;;;20.74;85.65
44044;BME280;29709;52.396;16.796;2023-08-01T07:41:29;100030.15;;;20.86;86.02
44044;BME280;29709;52.396;16.796;2023-08-01T07:44:42;100028.44;;;21.01;85.03
44044;BME280;29709;52.396;16.796;2023-08-01T07:47:55;100020.63;;;21.03;83.94
44044;BME280;29709;52.396;16.796;2023-08-01T07:51:08;100021.58;;;20.92;83.07
44044;BME280;29709;52.396;16.796;2023-08-01T07:54:24;100023.73;;;20.85;82.96
44044;BME280;29709;52.396;16.796;2023-08-01T07:57:38;100016.29;;;20.74;83.58
44044;BME280;29709;52.396;16.796;2023-08-01T08:00:51;100020.51;;;20.77;83.39
44044;BME280;29709;52.396;16.796;2023-08-01T08:04:04;100011.28;;;20.76;83.25
44044;BME280;29709;52.396;16.796;2023-08-01T08:07:17;100008.98;;;20.73;83.49
44044;BME280;29709;52.396;16.796;2023-08-01T08:10:30;100001.55;;;20.79;83.60
44044;BME280;29709;52.396;16.796;2023-08-01T08:13:44;99999.86;;;20.78;83.98
44044;BME280;29709;52.396;16.796;2023-08-01T08:16:57;100002.06;;;20.75;83.23
44044;BME280;29709;52.396;16.796;2023-08-01T08:20:10;99990.80;;;20.70;83.98
44044;BME280;29709;52.396;16.796;2023-08-01T08:23:23;99987.32;;;20.63;84.30
44044;BME280;29709;52.396;16.796;2023-08-01T08:26:37;99986.15;;;20.59;84.70
44044;BME280;29709;52.396;16.796;2023-08-01T08:29:52;99979.88;;;20.69;84.49
44044;BME280;29709;52.396;16.796;2023-08-01T08:35:17;99974.55;;;20.84;84.16
44044;BME280;29709;52.396;16.796;2023-08-01T08:38:30;99970.46;;;20.92;84.27
44044;BME280;29709;52.396;16.796;2023-08-01T08:41:46;99967.17;;;20.95;84.93
44044;BME280;29709;52.396;16.796;2023-08-01T08:45:04;99969.71;;;20.96;84.22
44044;BME280;29709;52.396;16.796;2023-08-01T08:48:18;99964.96;;;20.97;84.61
44044;BME280;29709;52.396;16.796;2023-08-01T08:51:32;99960.66;;;20.89;83.70
44044;BME280;29709;52.396;16.796;2023-08-01T08:54:47;99962.45;;;20.79;84.83
44044;BME280;29709;52.396;16.796;2023-08-01T08:58:01;99966.87;;;20.74;85.23
44044;BME280;29709;52.396;16.796;2023-08-01T09:01:14;99955.34;;;20.71;85.88
44044;BME280;29709;52.396;16.796;2023-08-01T09:04:27;99953.06;;;20.68;86.00
44044;BME280;29709;52.396;16.796;2023-08-01T09:07:42;99943.68;;;20.74;85.80
44044;BME280;29709;52.396;16.796;2023-08-01T09:10:59;99938.10;;;20.74;85.84
44044;BME280;29709;52.396;16.796;2023-08-01T09:14:13;99937.57;;;20.77;85.06
44044;BME280;29709;52.396;16.796;2023-08-01T09:17:26;99934.69;;;20.72;85.01
44044;BME280;29709;52.396;16.796;2023-08-01T09:20:48;99931.57;;;20.68;84.79
44044;BME280;29709;52.396;16.796;2023-08-01T09:24:08;99929.14;;;20.55;85.33
44044;BME280;29709;52.396;16.796;2023-08-01T09:27:22;99929.69;;;20.40;87.12
44044;BME280;29709;52.396;16.796;2023-08-01T09:34:04;99938.30;;;20.05;90.39
44044;BME280;29709;52.396;16.796;2023-08-01T09:37:20;99928.39;;;19.98;91.80
44044;BME280;29709;52.396;16.796;2023-08-01T09:40:37;99925.34;;;19.82;93.05
44044;BME280;29709;52.396;16.796;2023-08-01T09:43:50;99924.97;;;19.79;93.73
44044;BME280;29709;52.396;16.796;2023-08-01T09:47:05;99925.68;;;19.86;94.58
44044;BME280;29709;52.396;16.796;2023-08-01T09:50:23;99917.90;;;19.88;94.26
44044;BME280;29709;52.396;16.796;2023-08-01T09:57:02;99909.45;;;19.83;94.78
44044;BME280;29709;52.396;16.796;2023-08-01T10:00:19;99911.23;;;19.89;94.66
44044;BME280;29709;52.396;16.796;2023-08-01T10:03:32;99904.13;;;19.81;94.67
44044;BME280;29709;52.396;16.796;2023-08-01T10:06:50;99902.33;;;19.75;95.65
44044;BME280;29709;52.396;16.796;2023-08-01T10:10:08;99900.98;;;19.78;95.55
44044;BME280;29709;52.396;16.796;2023-08-01T10:13:23;99902.58;;;19.74;96.15
44044;BME280;29709;52.396;16.796;2023-08-01T10:16:40;99894.48;;;19.72;96.34
44044;BME280;29709;52.396;16.796;2023-08-01T10:19:55;99891.44;;;19.74;97.16
44044;BME280;29709;52.396;16.796;2023-08-01T10:23:12;99879.77;;;19.77;96.25
44044;BME280;29709;52.396;16.796;2023-08-01T10:26:25;99883.77;;;19.81;96.35
44044;BME280;29709;52.396;16.796;2023-08-01T10:29:39;99862.13;;;19.88;96.70
44044;BME280;29709;52.396;16.796;2023-08-01T10:32:58;99858.41;;;19.99;96.29
44044;BME280;29709;52.396;16.796;2023-08-01T10:36:17;99857.16;;;20.07;96.38
44044;BME280;29709;52.396;16.796;2023-08-01T10:39:31;99842.59;;;20.22;96.82
44044;BME280;29709;52.396;16.796;2023-08-01T10:42:45;99842.20;;;20.46;96.00
44044;BME280;29709;52.396;16.796;2023-08-01T10:46:03;99845.72;;;20.59;95.84
44044;BME280;29709;52.396;16.796;2023-08-01T10:49:18;99847.81;;;20.68;95.36
44044;BME280;29709;52.396;16.796;2023-08-01T10:52:32;99846.78;;;20.74;94.25
44044;BME280;29709;52.396;16.796;2023-08-01T10:55:46;99843.48;;;20.78;94.60
44044;BME280;29709;52.396;16.796;2023-08-01T10:59:05;99837.09;;;20.82;94.53
44044;BME280;29709;52.396;16.796;2023-08-01T11:02:23;99835.63;;;20.96;94.43
44044;BME280;29709;52.396;16.796;2023-08-01T11:05:37;99826.58;;;21.11;93.31
44044;BME280;29709;52.396;16.796;2023-08-01T11:08:50;99813.26;;;21.18;94.40
44044;BME280;29709;52.396;16.796;2023-08-01T11:12:04;99815.74;;;21.37;94.69
44044;BME280;29709;52.396;16.796;2023-08-01T11:15:17;99796.51;;;21.45;92.04
44044;BME280;29709;52.396;16.796;2023-08-01T11:18:30;99795.67;;;21.45;93.04
44044;BME280;29709;52.396;16.796;2023-08-01T11:21:44;99781.19;;;21.48;91.73
44044;BME280;29709;52.396;16.796;2023-08-01T11:24:57;99793.14;;;21.43;91.87
44044;BME280;29709;52.396;16.796;2023-08-01T11:28:16;99812.29;;;21.29;92.59
44044;BME280;29709;52.396;16.796;2023-08-01T11:31:29;99822.05;;;21.27;91.38
44044;BME280;29709;52.396;16.796;2023-08-01T11:34:44;99826.13;;;20.97;89.91
44044;BME280;29709;52.396;16.796;2023-08-01T11:37:58;99830.12;;;20.63;88.42
44044;BME280;29709;52.396;16.796;2023-08-01T11:41:11;99832.47;;;20.32;89.02
44044;BME280;29709;52.396;16.796;2023-08-01T11:44:24;99828.26;;;20.13;90.16
44044;BME280;29709;52.396;16.796;2023-08-01T11:47:45;99830.20;;;20.12;91.33
44044;BME280;29709;52.396;16.796;2023-08-01T11:51:00;99823.78;;;20.12;91.79
44044;BME280;29709;52.396;16.796;2023-08-01T11:54:14;99816.58;;;20.16;91.36
44044;BME280;29709;52.396;16.796;2023-08-01T11:57:28;99830.37;;;20.23;91.92
44044;BME280;29709;52.396;16.796;2023-08-01T12:00:41;99818.68;;;20.26;91.79
44044;BME280;29709;52.396;16.796;2023-08-01T12:03:55;99821.22;;;20.27;92.33
44044;BME280;29709;52.396;16.796;2023-08-01T12:07:14;99813.52;;;20.34;91.50
44044;BME280;29709;52.396;16.796;2023-08-01T12:10:37;99804.48;;;20.44;92.30
44044;BME280;29709;52.396;16.796;2023-08-01T12:14:14;99815.09;;;20.64;92.17
44044;BME280;29709;52.396;16.796;2023-08-01T12:17:18;99811.96;;;20.82;93.32
44044;BME280;29709;52.396;16.796;2023-08-01T12:20:32;99809.50;;;21.08;93.87
44044;BME280;29709;52.396;16.796;2023-08-01T12:23:45;99812.07;;;21.36;92.11
44044;BME280;29709;52.396;16.796;2023-08-01T12:26:58;99801.70;;;21.58;92.16
44044;BME280;29709;52.396;16.796;2023-08-01T12:30:11;99806.73;;;21.88;91.90
44044;BME280;29709;52.396;16.796;2023-08-01T12:33:24;99813.68;;;22.18;90.91
44044;BME280;29709;52.396;16.796;2023-08-01T12:36:38;99819.09;;;22.30;90.36
44044;BME280;29709;52.396;16.796;2023-08-01T12:39:51;99817.40;;;22.29;89.58
44044;BME280;29709;52.396;16.796;2023-08-01T12:43:06;99813.46;;;22.25;88.48
44044;BME280;29709;52.396;16.796;2023-08-01T12:46:19;99800.58;;;22.24;88.29
44044;BME280;29709;52.396;16.796;2023-08-01T12:49:32;99796.75;;;22.40;89.05
44044;BME280;29709;52.396;16.796;2023-08-01T12:52:45;99790.41;;;22.55;88.20
44044;BME280;29709;52.396;16.796;2023-08-01T12:55:59;99800.85;;;22.69;87.76
44044;BME280;29709;52.396;16.796;2023-08-01T12:59:12;99784.80;;;23.07;87.01
44044;BME280;29709;52.396;16.796;2023-08-01T13:02:26;99801.64;;;23.22;83.31
44044;BME280;29709;52.396;16.796;2023-08-01T13:05:41;99825.76;;;23.23;83.90
44044;BME280;29709;52.396;16.796;2023-08-01T13:08:54;99838.68;;;23.24;83.08
44044;BME280;29709;52.396;16.796;2023-08-01T13:12:08;99836.41;;;23.21;81.69
44044;BME280;29709;52.396;16.796;2023-08-01T13:15:21;99849.30;;;23.22;82.23
44044;BME280;29709;52.396;16.796;2023-08-01T13:18:34;99839.52;;;23.25;81.35
44044;BME280;29709;52.396;16.796;2023-08-01T13:21:48;99853.26;;;23.26;81.75
44044;BME280;29709;52.396;16.796;2023-08-01T13:25:01;99848.21;;;23.28;81.71
44044;BME280;29709;52.396;16.796;2023-08-01T13:28:16;99826.13;;;23.47;82.19
44044;BME280;29709;52.396;16.796;2023-08-01T13:31:30;99830.68;;;23.84;80.39
44044;BME280;29709;52.396;16.796;2023-08-01T13:34:42;99813.58;;;24.01;79.54
44044;BME280;29709;52.396;16.796;2023-08-01T13:37:56;99800.66;;;24.15;78.27
44044;BME280;29709;52.396;16.796;2023-08-01T13:41:09;99803.75;;;24.29;77.40
44044;BME280;29709;52.396;16.796;2023-08-01T13:44:22;99808.52;;;24.43;75.88
44044;BME280;29709;52.396;16.796;2023-08-01T13:47:35;99806.81;;;24.47;76.63
44044;BME280;29709;52.396;16.796;2023-08-01T13:50:48;99822.85;;;24.32;75.21
44044;BME280;29709;52.396;16.796;2023-08-01T13:54:02;99814.40;;;24.16;75.55
44044;BME280;29709;52.396;16.796;2023-08-01T13:57:15;99812.19;;;24.08;74.33
44044;BME280;29709;52.396;16.796;2023-08-01T14:00:28;99829.58;;;23.90;74.75
44044;BME280;29709;52.396;16.796;2023-08-01T14:03:41;99827.34;;;23.87;75.65
44044;BME280;29709;52.396;16.796;2023-08-01T14:06:54;99828.72;;;23.69;75.11
44044;BME280;29709;52.396;16.796;2023-08-01T14:10:08;99828.39;;;23.55;75.55
44044;BME280;29709;52.396;16.796;2023-08-01T14:13:22;99830.02;;;23.41;76.08
44044;BME280;29709;52.396;16.796;2023-08-01T14:16:35;99831.96;;;23.30;76.65
44044;BME280;29709;52.396;16.796;2023-08-01T14:19:48;99831.96;;;23.25;77.42
44044;BME280;29709;52.396;16.796;2023-08-01T14:23:01;99838.09;;;23.22;77.66
44044;BME280;29709;52.396;16.796;2023-08-01T14:26:15;99835.28;;;23.17;78.22
44044;BME280;29709;52.396;16.796;2023-08-01T14:29:28;99845.91;;;23.10;78.29
44044;BME280;29709;52.396;16.796;2023-08-01T14:32:41;99841.37;;;22.99;79.11
44044;BME280;29709;52.396;16.796;2023-08-01T14:35:55;99837.95;;;22.87;79.65
44044;BME280;29709;52.396;16.796;2023-08-01T14:39:09;99842.08;;;22.79;80.74
44044;BME280;29709;52.396;16.796;2023-08-01T14:42:22;99826.10;;;22.80;81.10
44044;BME280;29709;52.396;16.796;2023-08-01T14:45:39;99823.38;;;22.85;80.70
44044;BME280;29709;52.396;16.796;2023-08-01T14:48:52;99812.82;;;23.12;80.30
44044;BME280;29709;52.396;16.796;2023-08-01T14:52:06;99815.41;;;23.29;77.98
44044;BME280;29709;52.396;16.796;2023-08-01T14:55:19;99812.66;;;23.49;75.56
44044;BME280;29709;52.396;16.796;2023-08-01T14:58:32;99822.27;;;23.69;74.02
44044;BME280;29709;52.396;16.796;2023-08-01T15:01:51;99838.25;;;23.68;72.64
44044;BME280;29709;52.396;16.796;2023-08-01T15:05:05;99852.00;;;23.70;71.58
44044;BME280;29709;52.396;16.796;2023-08-01T15:08:18;99871.63;;;23.75;71.98
44044;BME280;29709;52.396;16.796;2023-08-01T15:11:32;99843.57;;;23.59;71.07
44044;BME280;29709;52.396;16.796;2023-08-01T15:14:45;99846.91;;;23.56;70.94
44044;BME280;29709;52.396;16.796;2023-08-01T15:17:59;99832.87;;;23.56;70.73
44044;BME280;29709;52.396;16.796;2023-08-01T15:21:12;99829.54;;;23.59;70.86
44044;BME280;29709;52.396;16.796;2023-08-01T15:24:25;99839.66;;;23.66;70.74
44044;BME280;29709;52.396;16.796;2023-08-01T15:27:38;99834.33;;;23.69;70.67
44044;BME280;29709;52.396;16.796;2023-08-01T15:31:01;99843.25;;;23.56;70.97
44044;BME280;29709;52.396;16.796;2023-08-01T15:34:14;99855.84;;;23.53;71.19
44044;BME280;29709;52.396;16.796;2023-08-01T15:37:27;99871.55;;;23.49;71.22
44044;BME280;29709;52.396;16.796;2023-08-01T15:40:41;99887.27;;;23.50;71.55
44044;BME280;29709;52.396;16.796;2023-08-01T15:43:54;99879.09;;;23.44;71.80
44044;BME280;29709;52.396;16.796;2023-08-01T15:47:07;99892.23;;;23.33;72.72
44044;BME280;29709;52.396;16.796;2023-08-01T15:50:21;99877.61;;;23.21;73.67
44044;BME280;29709;52.396;16.796;2023-08-01T15:53:34;99870.63;;;23.28;74.17
44044;BME280;29709;52.396;16.796;2023-08-01T15:56:48;99876.26;;;23.28;73.81
44044;BME280;29709;52.396;16.796;2023-08-01T16:00:01;99875.66;;;23.21;74.37
44044;BME280;29709;52.396;16.796;2023-08-01T16:03:14;99881.54;;;23.20;74.91
44044;BME280;29709;52.396;16.796;2023-08-01T16:06:28;99892.99;;;23.13;74.92
44044;BME280;29709;52.396;16.796;2023-08-01T16:09:41;99898.59;;;23.08;75.37
44044;BME280;29709;52.396;16.796;2023-08-01T16:12:54;99895.72;;;22.98;75.33
44044;BME280;29709;52.396;16.796;2023-08-01T16:16:07;99888.94;;;22.84;75.73
44044;BME280;29709;52.396;16.796;2023-08-01T16:19:20;99898.18;;;22.84;75.83
44044;BME280;29709;52.396;16.796;2023-08-01T16:22:34;99889.22;;;22.87;76.03
44044;BME280;29709;52.396;16.796;2023-08-01T16:25:47;99894.54;;;22.84;76.07
44044;BME280;29709;52.396;16.796;2023-08-01T16:29:00;99899.02;;;22.85;76.47
44044;BME280;29709;52.396;16.796;2023-08-01T16:32:13;99896.47;;;22.83;76.38
44044;BME280;29709;52.396;16.796;2023-08-01T16:35:27;99890.27;;;22.81;75.53
44044;BME280;29709;52.396;16.796;2023-08-01T16:38:40;99906.51;;;22.79;74.73
44044;BME280;29709;52.396;16.796;2023-08-01T16:41:53;99898.59;;;22.66;74.99
44044;BME280;29709;52.396;16.796;2023-08-01T16:45:08;99912.29;;;22.62;75.13
44044;BME280;29709;52.396;16.796;2023-08-01T16:48:22;99912.29;;;22.62;75.22
44044;BME280;29709;52.396;16.796;2023-08-01T16:51:36;99912.52;;;22.56;75.01
44044;BME280;29709;52.396;16.796;2023-08-01T16:54:49;99917.23;;;22.50;74.50
44044;BME280;29709;52.396;16.796;2023-08-01T16:58:02;99925.87;;;22.43;74.76